createdAt,value
2022-12-25T00:02:10.634Z,29.50
2022-12-25T00:04:40.659Z,30.77
2022-12-25T00:07:08.895Z,29.88
2022-12-25T00:09:35.818Z,31.30
2022-12-25T00:12:04.970Z,30.38
2022-12-25T00:14:36.608Z,30.05
2022-12-25T00:17:07.976Z,30.02
2022-12-25T00:22:07.928Z,30.58
2022-12-25T00:24:36.147Z,28.15
2022-12-25T00:27:03.136Z,29.38
2022-12-25T00:29:30.932Z,29.58
2022-12-25T00:32:04.785Z,32.13
2022-12-25T00:34:31.917Z,30.35
2022-12-25T00:37:01.616Z,33.05
2022-12-25T00:39:30.584Z,27.95
2022-12-25T00:42:02.237Z,30.25
2022-12-25T00:44:31.972Z,29.35
2022-12-25T00:47:01.633Z,30.30
2022-12-25T00:49:29.999Z,28.58
2022-12-25T00:52:00.530Z,31.05
2022-12-25T00:54:27.519Z,29.17
2022-12-25T00:56:54.425Z,28.67
2022-12-25T00:59:33.984Z,28.92
2022-12-25T01:02:01.662Z,29.60
2022-12-25T01:04:30.943Z,31.73
2022-12-25T01:06:59.933Z,30.30
2022-12-25T01:09:26.776Z,31.33
2022-12-25T01:11:53.568Z,31.85
2022-12-25T01:14:20.507Z,33.35
2022-12-25T01:16:48.892Z,32.08
2022-12-25T01:19:19.129Z,34.03
2022-12-25T01:21:46.519Z,31.67
2022-12-25T01:24:18.432Z,30.23
2022-12-25T01:26:56.354Z,30.80
2022-12-25T01:29:32.692Z,29.15
2022-12-25T01:32:06.592Z,29.98
2022-12-25T01:34:38.916Z,28.60
2022-12-25T01:37:05.811Z,29.48
2022-12-25T01:39:34.073Z,29.08
2022-12-25T01:42:06.842Z,29.48
2022-12-25T01:45:21.247Z,30.42
2022-12-25T01:47:50.813Z,28.15
2022-12-25T01:50:20.653Z,28.42
2022-12-25T01:52:50.374Z,29.25
2022-12-25T01:55:25.446Z,29.80
2022-12-25T01:57:56.090Z,29.92
2022-12-25T02:00:25.523Z,30.45
2022-12-25T02:02:55.620Z,30.00
2022-12-25T02:05:27.212Z,30.83
2022-12-25T02:08:07.672Z,28.60
2022-12-25T02:10:38.189Z,33.13
2022-12-25T02:13:06.370Z,33.33
2022-12-25T02:15:46.506Z,32.72
2022-12-25T02:18:30.431Z,34.42
2022-12-25T02:21:35.997Z,33.97
2022-12-25T02:24:33.693Z,32.25
2022-12-25T02:27:16.923Z,31.63
2022-12-25T02:29:56.627Z,33.55
2022-12-25T02:32:43.551Z,34.17
2022-12-25T02:38:41.403Z,34.05
2022-12-25T02:47:36.003Z,34.72
2022-12-25T02:53:03.574Z,32.75
2022-12-25T02:55:49.595Z,36.30
2022-12-25T02:58:28.674Z,34.47
2022-12-25T03:01:04.150Z,35.55
2022-12-25T03:03:44.205Z,38.10
2022-12-25T03:06:20.528Z,35.75
2022-12-25T03:08:55.533Z,35.15
2022-12-25T03:11:33.903Z,34.60
2022-12-25T03:14:15.329Z,34.13
2022-12-25T03:16:51.167Z,35.33
2022-12-25T03:19:28.686Z,35.17
2022-12-25T03:21:56.400Z,34.78
2022-12-25T03:24:27.512Z,35.03
2022-12-25T03:26:56.729Z,35.40
2022-12-25T03:29:32.685Z,36.83
2022-12-25T03:32:24.344Z,33.38
2022-12-25T03:37:56.229Z,32.63
2022-12-25T03:40:39.837Z,34.35
2022-12-25T03:43:22.389Z,35.38
2022-12-25T03:46:03.922Z,35.88
2022-12-25T03:51:30.097Z,36.13
2022-12-25T03:54:13.435Z,34.45
2022-12-25T03:56:50.989Z,36.95
2022-12-25T03:59:31.505Z,35.95
2022-12-25T04:01:58.740Z,38.90
2022-12-25T04:07:29.669Z,39.58
2022-12-25T04:10:02.526Z,39.58
2022-12-25T04:12:44.232Z,40.10
2022-12-25T04:15:13.570Z,42.10
2022-12-25T04:17:47.980Z,40.22
2022-12-25T04:20:16.913Z,41.90
2022-12-25T04:23:02.476Z,42.75
2022-12-25T04:25:39.401Z,40.60
2022-12-25T04:28:09.136Z,39.83
2022-12-25T04:30:38.908Z,38.35
2022-12-25T04:33:11.661Z,41.35
2022-12-25T04:35:55.135Z,37.85
2022-12-25T04:38:23.528Z,38.38
2022-12-25T04:40:58.496Z,37.45
2022-12-25T04:43:30.392Z,36.75
2022-12-25T04:46:02.257Z,38.45
2022-12-25T04:48:37.663Z,36.75
2022-12-25T04:51:24.978Z,37.60
2022-12-25T04:54:14.271Z,35.22
2022-12-25T04:56:45.522Z,34.58
2022-12-25T04:59:28.024Z,35.60
2022-12-25T05:02:13.773Z,36.15
2022-12-25T05:04:59.577Z,36.53
2022-12-25T05:07:42.286Z,37.72
2022-12-25T05:10:41.420Z,38.97
2022-12-25T05:13:20.807Z,39.10
2022-12-25T05:16:10.288Z,38.35
2022-12-25T05:18:40.133Z,40.10
2022-12-25T05:21:23.350Z,39.80
2022-12-25T05:24:06.968Z,40.20
2022-12-25T05:27:07.532Z,41.33
2022-12-25T05:29:48.376Z,43.40
2022-12-25T05:32:56.341Z,41.53
2022-12-25T05:35:31.861Z,42.75
2022-12-25T05:38:17.873Z,45.10
2022-12-25T05:40:58.174Z,43.00
2022-12-25T05:44:07.940Z,41.85
2022-12-25T05:46:46.093Z,44.80
2022-12-25T05:49:19.949Z,42.30
2022-12-25T05:54:49.256Z,41.70
2022-12-25T05:57:43.050Z,42.90
2022-12-25T06:00:21.815Z,42.63
2022-12-25T06:02:54.441Z,40.58
2022-12-25T06:05:23.282Z,44.35
2022-12-25T06:07:55.140Z,40.50
2022-12-25T06:10:24.203Z,41.47
2022-12-25T06:13:02.399Z,40.08
2022-12-25T06:15:40.093Z,41.67
2022-12-25T06:23:58.536Z,40.25
2022-12-25T06:26:44.393Z,40.00
2022-12-25T06:29:21.079Z,39.97
2022-12-25T06:32:07.401Z,39.67
2022-12-25T06:34:37.292Z,38.15
2022-12-25T06:40:07.307Z,37.35
2022-12-25T06:45:19.052Z,37.53
2022-12-25T06:47:51.372Z,36.53
2022-12-25T06:53:17.798Z,36.75
2022-12-25T06:55:52.769Z,37.60
2022-12-25T06:58:28.447Z,35.28
2022-12-25T07:03:51.712Z,36.08
2022-12-25T07:06:18.755Z,35.20
2022-12-25T07:08:51.293Z,35.92
2022-12-25T07:11:30.973Z,34.80
2022-12-25T07:14:05.808Z,36.20
2022-12-25T07:16:32.876Z,34.55
2022-12-25T07:19:03.892Z,36.40
2022-12-25T07:21:36.581Z,31.98
2022-12-25T07:24:08.873Z,33.90
2022-12-25T07:26:44.800Z,34.17
2022-12-25T07:29:16.561Z,31.70
2022-12-25T07:31:49.669Z,31.05
2022-12-25T07:34:26.078Z,31.48
2022-12-25T07:37:01.140Z,30.85
2022-12-25T07:39:39.965Z,31.75
2022-12-25T07:42:25.024Z,29.08
2022-12-25T07:45:07.757Z,29.33
2022-12-25T07:48:02.699Z,30.15
2022-12-25T07:50:40.181Z,28.23
2022-12-25T07:53:18.943Z,27.65
2022-12-25T07:56:02.409Z,28.23
2022-12-25T07:58:42.103Z,27.88
2022-12-25T08:01:26.707Z,25.52
2022-12-25T08:04:10.359Z,26.20
2022-12-25T08:06:43.724Z,26.13
2022-12-25T08:09:19.383Z,26.70
2022-12-25T08:11:53.838Z,26.40
2022-12-25T08:14:27.948Z,24.73
2022-12-25T08:17:07.414Z,25.17
2022-12-25T08:19:39.194Z,25.50
2022-12-25T08:22:15.403Z,23.90
2022-12-25T08:24:55.138Z,25.10
2022-12-25T08:27:25.077Z,25.92
2022-12-25T08:29:57.825Z,25.20
2022-12-25T08:32:39.807Z,25.98
2022-12-25T08:35:11.716Z,23.73
2022-12-25T08:37:42.739Z,24.35
2022-12-25T08:40:13.138Z,24.15
2022-12-25T08:42:47.759Z,22.80
2022-12-25T08:45:34.749Z,22.90
2022-12-25T08:48:04.971Z,23.33
2022-12-25T08:50:37.017Z,22.98
2022-12-25T08:53:10.912Z,20.52
2022-12-25T08:55:47.830Z,21.20
2022-12-25T08:58:19.879Z,21.52
2022-12-25T09:00:49.917Z,19.35
2022-12-25T09:03:27.256Z,18.63
2022-12-25T09:09:16.507Z,17.73
2022-12-25T09:11:50.973Z,18.48
2022-12-25T09:14:19.480Z,17.83
2022-12-25T09:16:49.208Z,16.88
2022-12-25T09:19:31.516Z,17.45
2022-12-25T09:21:58.281Z,17.48
2022-12-25T09:24:26.647Z,17.52
2022-12-25T09:26:55.431Z,19.13
2022-12-25T09:33:26.514Z,19.08
2022-12-25T09:40:58.193Z,17.85
2022-12-25T10:10:44.244Z,15.93
2022-12-25T10:19:56.120Z,16.45
2022-12-25T10:22:49.593Z,15.65
2022-12-25T10:25:55.277Z,15.15
2022-12-25T10:28:29.783Z,14.02
2022-12-25T10:31:03.620Z,14.60
2022-12-25T10:33:31.101Z,13.88
2022-12-25T10:35:58.286Z,13.73
2022-12-25T10:38:25.209Z,12.02
2022-12-25T10:41:08.668Z,13.30
2022-12-25T10:43:42.300Z,12.07
2022-12-25T10:46:20.736Z,12.30
2022-12-25T10:48:56.427Z,12.90
2022-12-25T10:54:32.763Z,12.80
2022-12-25T10:57:15.121Z,11.57
2022-12-25T11:00:25.013Z,11.88
2022-12-25T11:03:32.212Z,12.15
2022-12-25T11:06:35.422Z,12.93
2022-12-25T11:16:29.517Z,10.52
2022-12-25T11:29:38.566Z,10.55
2022-12-25T11:36:09.991Z,11.70
2022-12-25T12:00:01.575Z,10.82
2022-12-25T12:02:35.233Z,10.45
2022-12-25T12:05:33.273Z,10.63
2022-12-25T12:08:17.345Z,10.68
2022-12-25T12:14:31.999Z,11.05
2022-12-25T12:17:16.314Z,10.52
2022-12-25T12:19:53.203Z,11.20
2022-12-25T12:25:54.705Z,10.88
2022-12-25T12:29:02.027Z,10.85
2022-12-25T12:32:13.131Z,11.10
2022-12-25T12:35:04.192Z,10.50
2022-12-25T12:46:46.142Z,11.10
2022-12-25T12:49:37.032Z,11.35
2022-12-25T12:52:44.752Z,10.77
2022-12-25T13:02:05.804Z,10.77
2022-12-25T13:14:16.604Z,11.80
2022-12-25T13:16:54.803Z,11.40
2022-12-25T13:19:53.153Z,11.48
2022-12-25T13:22:39.666Z,12.07
2022-12-25T13:25:24.200Z,11.20
2022-12-25T13:28:00.585Z,11.52
2022-12-25T13:30:43.178Z,12.80
2022-12-25T13:33:18.709Z,12.98
2022-12-25T13:36:02.208Z,12.38
2022-12-25T13:38:31.835Z,11.55
2022-12-25T13:41:04.277Z,12.30
2022-12-25T13:43:31.171Z,12.80
2022-12-25T13:45:58.055Z,11.57
2022-12-25T13:48:25.640Z,12.40
2022-12-25T13:50:58.100Z,11.80
2022-12-25T13:53:35.547Z,11.88
2022-12-25T13:56:16.843Z,11.65
2022-12-25T13:58:53.482Z,11.88
2022-12-25T14:01:38.476Z,10.98
2022-12-25T14:04:20.628Z,11.60
2022-12-25T14:10:16.416Z,11.18
2022-12-25T14:12:49.527Z,12.00
2022-12-25T14:15:30.998Z,11.23
2022-12-25T14:18:05.953Z,10.90
2022-12-25T14:20:58.381Z,11.52
2022-12-25T14:23:41.846Z,11.90
2022-12-25T14:26:19.231Z,11.40
2022-12-25T14:28:50.477Z,11.35
2022-12-25T14:31:20.774Z,11.60
2022-12-25T14:33:51.436Z,12.15
2022-12-25T14:36:18.989Z,11.77
2022-12-25T14:38:57.443Z,11.57
2022-12-25T14:41:29.161Z,12.38
2022-12-25T14:43:57.461Z,11.35
2022-12-25T14:46:26.442Z,12.15
2022-12-25T14:49:00.177Z,12.63
2022-12-25T14:51:29.563Z,13.13
2022-12-25T14:53:58.210Z,12.55
2022-12-25T14:56:29.483Z,12.80
2022-12-25T14:58:59.984Z,13.98
2022-12-25T15:01:30.303Z,13.50
2022-12-25T15:04:08.822Z,14.60
2022-12-25T15:06:40.572Z,13.23
2022-12-25T15:09:15.865Z,13.90
2022-12-25T15:11:42.637Z,13.88
2022-12-25T15:14:12.073Z,14.50
2022-12-25T15:16:41.845Z,15.40
2022-12-25T15:19:13.193Z,15.50
2022-12-25T15:21:40.349Z,16.27
2022-12-25T15:24:11.430Z,15.43
2022-12-25T15:26:38.229Z,15.25
2022-12-25T15:29:05.350Z,16.15
2022-12-25T15:31:48.408Z,15.95
2022-12-25T15:34:28.219Z,17.00
2022-12-25T15:36:57.428Z,16.92
2022-12-25T15:39:24.343Z,17.95
2022-12-25T15:41:52.881Z,16.50
2022-12-25T15:44:20.722Z,16.55
2022-12-25T15:46:51.911Z,17.92
2022-12-25T15:49:19.009Z,15.98
2022-12-25T15:51:46.921Z,16.92
2022-12-25T15:54:14.753Z,19.30
2022-12-25T15:56:45.493Z,16.98
2022-12-25T15:59:13.981Z,18.67
2022-12-25T16:01:44.546Z,19.05
2022-12-25T16:04:12.684Z,20.43
2022-12-25T16:06:42.419Z,21.15
2022-12-25T16:09:11.312Z,21.05
2022-12-25T16:11:38.283Z,24.00
2022-12-25T16:14:05.947Z,19.85
2022-12-25T16:16:54.991Z,22.25
2022-12-25T16:19:25.794Z,24.17
2022-12-25T16:22:17.769Z,24.70
2022-12-25T16:24:57.864Z,24.88
2022-12-25T16:27:29.202Z,35.15
2022-12-25T16:30:01.945Z,26.00
2022-12-25T16:32:31.394Z,49.25
2022-12-25T16:35:04.827Z,42.88
2022-12-25T16:37:31.698Z,36.83
2022-12-25T16:40:00.775Z,35.30
2022-12-25T16:42:27.725Z,23.45
2022-12-25T16:44:54.504Z,24.08
2022-12-25T16:47:21.655Z,26.55
2022-12-25T16:49:50.423Z,21.88
2022-12-25T16:52:19.581Z,23.70
2022-12-25T16:54:48.678Z,23.58
2022-12-25T16:57:18.153Z,23.02
2022-12-25T16:59:50.907Z,23.88
2022-12-25T17:02:23.045Z,24.90
2022-12-25T17:04:54.921Z,24.30
2022-12-25T17:07:23.593Z,21.85
2022-12-25T17:09:50.427Z,24.35
2022-12-25T17:12:19.143Z,23.70
2022-12-25T17:14:51.087Z,25.05
2022-12-25T17:17:17.879Z,27.67
2022-12-25T17:19:46.839Z,25.80
2022-12-25T17:22:14.041Z,23.45
2022-12-25T17:24:42.316Z,29.77
2022-12-25T17:27:13.876Z,21.65
2022-12-25T17:29:43.711Z,23.58
2022-12-25T17:32:12.962Z,26.83
2022-12-25T17:34:42.467Z,29.75
2022-12-25T17:37:15.221Z,29.30
2022-12-25T17:39:44.002Z,28.80
2022-12-25T17:42:10.811Z,30.27
2022-12-25T17:44:46.834Z,25.95
2022-12-25T17:47:13.776Z,32.28
2022-12-25T17:49:43.562Z,29.85
2022-12-25T17:52:10.338Z,27.02
2022-12-25T17:54:37.399Z,30.33
2022-12-25T17:57:05.954Z,32.03
2022-12-25T17:59:32.937Z,29.83
2022-12-25T18:02:02.565Z,30.67
2022-12-25T18:04:34.365Z,32.05
2022-12-25T18:07:03.889Z,34.00
2022-12-25T18:09:30.618Z,35.13
2022-12-25T18:11:57.664Z,31.35
2022-12-25T18:14:26.002Z,36.78
2022-12-25T18:16:54.837Z,35.97
2022-12-25T18:19:21.752Z,33.45
2022-12-25T18:21:51.691Z,35.38
2022-12-25T18:24:20.768Z,38.88
2022-12-25T18:26:50.805Z,35.17
2022-12-25T18:29:20.271Z,30.65
2022-12-25T18:31:53.507Z,26.92
2022-12-25T18:34:23.398Z,26.35
2022-12-25T18:36:59.417Z,31.70
2022-12-25T18:39:33.540Z,29.77
2022-12-25T18:42:16.939Z,32.33
2022-12-25T18:44:47.803Z,31.42
2022-12-25T18:47:22.399Z,34.70
2022-12-25T18:49:52.054Z,33.92
2022-12-25T18:52:48.000Z,33.97
2022-12-25T18:55:16.654Z,31.30
2022-12-25T18:57:46.373Z,35.17
2022-12-25T19:00:16.148Z,32.22
2022-12-25T19:02:54.424Z,37.03
2022-12-25T19:05:24.415Z,37.00
2022-12-25T19:08:08.400Z,40.97
2022-12-25T19:10:39.707Z,41.65
2022-12-25T19:13:07.585Z,39.45
2022-12-25T19:15:43.664Z,42.78
2022-12-25T19:18:14.780Z,37.20
2022-12-25T19:20:42.917Z,38.15
2022-12-25T19:23:18.640Z,35.20
2022-12-25T19:25:50.023Z,37.35
2022-12-25T19:30:55.262Z,38.53
2022-12-25T19:33:30.456Z,39.28
2022-12-25T19:36:21.502Z,42.53
2022-12-25T19:39:05.280Z,36.28
2022-12-25T19:41:49.901Z,38.80
2022-12-25T19:44:31.768Z,33.50
2022-12-25T19:47:10.420Z,40.40
2022-12-25T19:50:03.699Z,39.45
2022-12-25T19:52:31.739Z,39.58
2022-12-25T19:55:12.939Z,40.85
2022-12-25T19:57:45.095Z,36.20
2022-12-25T20:00:12.613Z,37.28
2022-12-25T20:02:40.017Z,37.80
2022-12-25T20:05:22.423Z,38.05
2022-12-25T20:07:56.552Z,34.30
2022-12-25T20:10:33.305Z,33.85
2022-12-25T20:13:06.624Z,34.45
2022-12-25T20:15:34.224Z,34.10
2022-12-25T20:18:16.484Z,37.53
2022-12-25T20:21:00.028Z,34.05
2022-12-25T20:23:50.685Z,38.05
2022-12-25T20:26:19.550Z,41.40
2022-12-25T20:28:46.608Z,41.92
2022-12-25T20:31:18.554Z,40.28
2022-12-25T20:33:48.654Z,38.15
2022-12-25T20:36:16.897Z,36.85
2022-12-25T20:38:43.796Z,37.50
2022-12-25T20:41:29.648Z,38.97
2022-12-25T20:44:02.613Z,37.72
2022-12-25T20:46:29.932Z,40.63
2022-12-25T20:48:57.060Z,39.95
2022-12-25T20:51:26.128Z,40.45
2022-12-25T20:53:53.903Z,39.65
2022-12-25T20:56:23.875Z,37.20
2022-12-25T20:58:53.662Z,36.03
2022-12-25T21:01:22.314Z,36.53
2022-12-25T21:03:52.014Z,38.67
2022-12-25T21:06:19.836Z,35.75
2022-12-25T21:08:50.379Z,38.60
2022-12-25T21:11:19.367Z,37.53
2022-12-25T21:13:50.443Z,41.50
2022-12-25T21:16:20.178Z,38.92
2022-12-25T21:18:48.810Z,37.80
2022-12-25T21:21:17.904Z,36.85
2022-12-25T21:23:46.996Z,43.67
2022-12-25T21:26:17.441Z,46.25
2022-12-25T21:28:57.668Z,44.67
2022-12-25T21:31:32.121Z,46.53
2022-12-25T21:34:05.234Z,39.88
2022-12-25T21:36:38.751Z,48.95
2022-12-25T21:39:09.299Z,40.85
2022-12-25T21:42:00.580Z,37.83
2022-12-25T21:44:27.558Z,45.75
2022-12-25T21:46:54.581Z,46.20
2022-12-25T21:49:21.628Z,40.22
2022-12-25T21:51:48.454Z,46.97
2022-12-25T21:54:16.087Z,40.38
2022-12-25T21:56:45.794Z,40.08
2022-12-25T21:59:16.749Z,37.85
2022-12-25T22:01:44.268Z,37.17
2022-12-25T22:04:12.681Z,40.47
2022-12-25T22:06:41.825Z,44.33
2022-12-25T22:09:09.778Z,43.45
2022-12-25T22:11:36.785Z,43.47
2022-12-25T22:14:06.094Z,37.17
2022-12-25T22:16:34.364Z,38.03
2022-12-25T22:19:04.284Z,41.08
2022-12-25T22:21:33.895Z,37.85
2022-12-25T22:24:00.942Z,40.85
2022-12-25T22:26:37.221Z,39.08
2022-12-25T22:29:04.239Z,38.25
2022-12-25T22:31:32.947Z,39.75
2022-12-25T22:34:04.308Z,39.00
2022-12-25T22:39:01.579Z,36.63
2022-12-25T22:41:33.424Z,38.10
2022-12-25T22:44:16.907Z,38.22
2022-12-25T22:46:50.718Z,33.10
2022-12-25T22:49:19.671Z,32.03
2022-12-25T22:52:00.874Z,31.13
2022-12-25T22:54:30.374Z,33.30
2022-12-25T22:56:58.281Z,31.35
2022-12-25T22:59:31.764Z,33.17
2022-12-25T23:02:02.718Z,36.65
2022-12-25T23:04:34.067Z,31.42
2022-12-25T23:07:05.125Z,31.95
2022-12-25T23:09:34.812Z,33.80
2022-12-25T23:12:01.865Z,30.85
2022-12-25T23:14:28.680Z,36.45
2022-12-25T23:16:56.731Z,43.00
2022-12-25T23:19:24.233Z,34.65
2022-12-25T23:21:53.025Z,34.28
2022-12-25T23:24:21.678Z,37.70
2022-12-25T23:26:52.117Z,32.97
2022-12-25T23:29:18.983Z,30.00
2022-12-25T23:31:45.729Z,32.25
2022-12-25T23:34:13.462Z,36.00
2022-12-25T23:36:40.209Z,34.58
2022-12-25T23:39:12.462Z,33.75
2022-12-25T23:41:42.179Z,35.33
2022-12-25T23:44:09.666Z,34.13
2022-12-25T23:46:42.118Z,34.97
2022-12-25T23:49:24.658Z,30.40
2022-12-25T23:51:52.036Z,33.65
2022-12-25T23:54:27.549Z,30.98
2022-12-25T23:56:58.490Z,31.48
2022-12-25T23:59:31.809Z,35.95
